createdAt,value
2022-12-12T00:01:40.569Z,98851.56
2022-12-12T00:04:07.242Z,98847.06
2022-12-12T00:06:33.853Z,98848.91
2022-12-12T00:09:00.528Z,98855.81
2022-12-12T00:11:28.229Z,98856.38
2022-12-12T00:13:55.127Z,98849.47
2022-12-12T00:16:22.598Z,98853.16
2022-12-12T00:18:49.346Z,98861.13
2022-12-12T00:21:22.258Z,98854.78
2022-12-12T00:23:49.136Z,98853.50
2022-12-12T00:26:27.913Z,98848.97
2022-12-12T00:28:55.477Z,98850.59
2022-12-12T00:31:22.172Z,98848.97
2022-12-12T00:33:50.373Z,98860.41
2022-12-12T00:36:22.893Z,98853.00
2022-12-12T00:38:50.504Z,98850.13
2022-12-12T00:41:17.332Z,98857.84
2022-12-12T00:43:43.921Z,98859.16
2022-12-12T00:46:14.892Z,98862.84
2022-12-12T00:48:41.605Z,98866.50
2022-12-12T00:51:10.262Z,98867.56
2022-12-12T00:53:38.354Z,98862.50
2022-12-12T00:56:05.882Z,98864.13
2022-12-12T00:58:32.783Z,98868.59
2022-12-12T01:01:06.485Z,98870.69
2022-12-12T01:03:34.686Z,98868.53
2022-12-12T01:06:01.238Z,98878.59
2022-12-12T01:08:28.855Z,98876.19
2022-12-12T01:10:56.156Z,98870.41
2022-12-12T01:13:23.198Z,98875.72
2022-12-12T01:15:50.369Z,98880.19
2022-12-12T01:18:17.563Z,98889.78
2022-12-12T01:20:44.548Z,98880.44
2022-12-12T01:23:11.568Z,98884.38
2022-12-12T01:25:38.329Z,98883.81
2022-12-12T01:28:05.375Z,98880.59
2022-12-12T01:30:32.475Z,98887.50
2022-12-12T01:32:59.195Z,98886.94
2022-12-12T01:35:26.328Z,98892.25
2022-12-12T01:37:54.232Z,98889.34
2022-12-12T01:40:24.903Z,98893.88
2022-12-12T01:42:51.866Z,98890.66
2022-12-12T01:45:55.732Z,98898.50
2022-12-12T01:48:25.823Z,98898.19
2022-12-12T01:50:53.173Z,98904.75
2022-12-12T01:53:20.594Z,98900.41
2022-12-12T01:55:49.477Z,98904.59
2022-12-12T01:58:17.078Z,98903.19
2022-12-12T02:00:44.207Z,98911.41
2022-12-12T02:03:11.007Z,98907.94
2022-12-12T02:05:43.419Z,98901.03
2022-12-12T02:08:12.965Z,98909.88
2022-12-12T02:10:39.884Z,98911.03
2022-12-12T02:13:11.652Z,98905.25
2022-12-12T02:15:44.620Z,98905.81
2022-12-12T02:18:24.486Z,98904.84
2022-12-12T02:21:05.137Z,98901.75
2022-12-12T02:23:34.547Z,98901.84
2022-12-12T02:26:35.172Z,98901.84
2022-12-12T02:29:20.630Z,98909.81
2022-12-12T02:31:55.295Z,98901.00
2022-12-12T02:34:58.877Z,98908.66
2022-12-12T02:37:25.403Z,98906.56
2022-12-12T02:39:51.873Z,98908.75
2022-12-12T02:42:27.060Z,98912.75
2022-12-12T02:45:32.484Z,98908.75
2022-12-12T02:48:06.044Z,98900.31
2022-12-12T02:50:34.152Z,98899.81
2022-12-12T02:53:00.921Z,98896.59
2022-12-12T02:55:27.588Z,98894.53
2022-12-12T02:57:55.379Z,98892.13
2022-12-12T03:00:22.216Z,98891.88
2022-12-12T03:03:16.113Z,98901.69
2022-12-12T03:06:11.387Z,98899.81
2022-12-12T03:08:56.429Z,98897.19
2022-12-12T03:11:25.961Z,98906.75
2022-12-12T03:13:52.445Z,98903.06
2022-12-12T03:16:30.224Z,98902.25
2022-12-12T03:19:02.794Z,98903.06
2022-12-12T03:21:35.572Z,98904.66
2022-12-12T03:24:22.700Z,98899.81
2022-12-12T03:27:01.196Z,98898.56
2022-12-12T03:29:36.162Z,98903.06
2022-12-12T03:32:14.456Z,98903.53
2022-12-12T03:34:49.790Z,98900.53
2022-12-12T03:37:47.132Z,98901.84
2022-12-12T03:40:19.625Z,98899.03
2022-12-12T03:42:53.258Z,98904.09
2022-12-12T03:45:50.944Z,98896.94
2022-12-12T03:48:33.517Z,98902.00
2022-12-12T03:51:18.846Z,98904.19
2022-12-12T03:53:55.281Z,98911.66
2022-12-12T03:56:31.800Z,98897.59
2022-12-12T03:59:13.097Z,98904.53
2022-12-12T04:02:08.707Z,98910.66
2022-12-12T04:04:48.462Z,98905.66
2022-12-12T04:07:40.257Z,98901.16
2022-12-12T04:10:26.294Z,98905.41
2022-12-12T04:13:11.559Z,98912.34
2022-12-12T04:15:38.120Z,98913.38
2022-12-12T04:18:16.973Z,98919.25
2022-12-12T04:21:34.607Z,98917.66
2022-12-12T04:24:11.957Z,98921.91
2022-12-12T04:26:49.580Z,98923.53
2022-12-12T04:29:19.097Z,98918.56
2022-12-12T04:32:03.664Z,98915.66
2022-12-12T04:34:43.888Z,98929.75
2022-12-12T04:37:15.340Z,98923.38
2022-12-12T04:39:44.537Z,98933.19
2022-12-12T04:42:15.516Z,98933.19
2022-12-12T04:44:45.012Z,98919.34
2022-12-12T04:47:14.211Z,98932.41
2022-12-12T04:49:43.578Z,98930.78
2022-12-12T04:52:13.529Z,98928.38
2022-12-12T04:54:57.898Z,98932.06
2022-12-12T04:57:30.204Z,98934.16
2022-12-12T04:59:57.364Z,98935.19
2022-12-12T05:02:50.500Z,98926.66
2022-12-12T05:05:54.898Z,98930.59
2022-12-12T05:08:27.066Z,98932.78
2022-12-12T05:11:00.404Z,98934.63
2022-12-12T05:13:36.965Z,98936.25
2022-12-12T05:16:32.733Z,98933.03
2022-12-12T05:19:00.056Z,98938.66
2022-12-12T05:21:26.909Z,98935.78
2022-12-12T05:23:53.855Z,98943.16
2022-12-12T05:26:24.696Z,98942.59
2022-12-12T05:28:51.502Z,98943.16
2022-12-12T05:31:18.080Z,98943.97
2022-12-12T05:33:45.274Z,98946.41
2022-12-12T05:36:12.453Z,98948.00
2022-12-12T05:38:39.175Z,98942.69
2022-12-12T05:41:06.208Z,98945.13
2022-12-12T05:43:33.251Z,98943.50
2022-12-12T05:46:00.110Z,98952.19
2022-12-12T05:48:26.857Z,98944.44
2022-12-12T05:50:53.795Z,98946.31
2022-12-12T05:53:20.773Z,98944.13
2022-12-12T05:55:51.373Z,98950.22
2022-12-12T05:58:19.371Z,98947.97
2022-12-12T06:00:49.791Z,98947.09
2022-12-12T06:03:17.208Z,98948.09
2022-12-12T06:05:44.017Z,98942.75
2022-12-12T06:08:10.731Z,98945.22
2022-12-12T06:10:37.696Z,98945.44
2022-12-12T06:13:04.334Z,98942.94
2022-12-12T06:15:30.978Z,98951.63
2022-12-12T06:17:58.695Z,98939.28
2022-12-12T06:20:25.507Z,98955.22
2022-12-12T06:22:53.895Z,98948.28
2022-12-12T06:25:21.082Z,98948.22
2022-12-12T06:27:47.796Z,98950.16
2022-12-12T06:30:14.716Z,98954.19
2022-12-12T06:32:41.422Z,98953.47
2022-12-12T06:35:08.768Z,98959.63
2022-12-12T06:37:35.965Z,98962.44
2022-12-12T06:40:02.669Z,98958.91
2022-12-12T06:42:29.326Z,98953.41
2022-12-12T06:44:55.909Z,98959.91
2022-12-12T06:47:22.514Z,98971.72
2022-12-12T06:49:49.115Z,98964.69
2022-12-12T06:52:15.716Z,98963.22
2022-12-12T06:54:42.278Z,98967.88
2022-12-12T06:57:08.982Z,98965.91
2022-12-12T06:59:35.538Z,98961.06
2022-12-12T07:02:02.215Z,98968.94
2022-12-12T07:04:29.359Z,98974.72
2022-12-12T07:06:56.120Z,98970.69
2022-12-12T07:09:22.697Z,98970.94
2022-12-12T07:11:49.360Z,98969.31
2022-12-12T07:14:15.986Z,98966.66
2022-12-12T07:16:42.580Z,98970.38
2022-12-12T07:19:09.656Z,98976.94
2022-12-12T07:21:36.538Z,98975.31
2022-12-12T07:24:03.218Z,98985.94
2022-12-12T07:26:29.929Z,98986.75
2022-12-12T07:28:56.595Z,98983.84
2022-12-12T07:31:26.507Z,98984.69
2022-12-12T07:33:54.589Z,98993.69
2022-12-12T07:36:21.266Z,98999.56
2022-12-12T07:38:47.980Z,98988.13
2022-12-12T07:41:17.182Z,98997.69
2022-12-12T07:43:45.777Z,98996.91
2022-12-12T07:46:18.565Z,98998.50
2022-12-12T07:48:45.179Z,99007.06
2022-12-12T07:51:12.904Z,99000.69
2022-12-12T07:53:39.602Z,99015.09
2022-12-12T07:56:07.754Z,99023.16
2022-12-12T07:58:35.625Z,99020.03
2022-12-12T08:01:13.932Z,99015.91
2022-12-12T08:03:42.177Z,99012.31
2022-12-12T08:06:08.867Z,99020.38
2022-12-12T08:08:35.706Z,99019.66
2022-12-12T08:11:11.166Z,99023.47
2022-12-12T08:13:39.295Z,99028.06
2022-12-12T08:16:08.216Z,99019.63
2022-12-12T08:18:34.833Z,99028.97
2022-12-12T08:21:01.638Z,99023.41
2022-12-12T08:23:28.482Z,99029.88
2022-12-12T08:25:55.073Z,99029.97
2022-12-12T08:28:21.739Z,99033.78
2022-12-12T08:30:50.032Z,99031.22
2022-12-12T08:33:16.700Z,99036.53
2022-12-12T08:35:43.290Z,99029.13
2022-12-12T08:38:09.852Z,99033.13
2022-12-12T08:40:36.451Z,99037.09
2022-12-12T08:43:03.007Z,99033.72
2022-12-12T08:45:29.579Z,99032.78
2022-12-12T08:47:56.240Z,99036.78
2022-12-12T08:50:22.806Z,99034.72
2022-12-12T08:52:49.306Z,99055.03
2022-12-12T08:55:16.024Z,99047.63
2022-12-12T08:57:42.805Z,99048.75
2022-12-12T09:00:10.693Z,99049.09
2022-12-12T09:02:37.464Z,99041.69
2022-12-12T09:05:04.332Z,99041.75
2022-12-12T09:07:30.893Z,99047.97
2022-12-12T09:09:57.617Z,99050.50
2022-12-12T09:12:24.228Z,99043.38
2022-12-12T09:14:50.783Z,99045.81
2022-12-12T09:17:17.334Z,99046.03
2022-12-12T09:19:43.947Z,99056.69
2022-12-12T09:22:10.621Z,99060.09
2022-12-12T09:24:37.289Z,99071.50
2022-12-12T09:27:04.498Z,99068.38
2022-12-12T09:29:31.198Z,99074.72
2022-12-12T09:31:58.344Z,99078.59
2022-12-12T09:34:25.153Z,99075.69
2022-12-12T09:36:51.728Z,99070.38
2022-12-12T09:39:19.688Z,99078.94
2022-12-12T09:41:46.275Z,99081.03
2022-12-12T09:44:18.782Z,99082.63
2022-12-12T09:46:55.586Z,99079.41
2022-12-12T09:49:22.099Z,99080.53
2022-12-12T09:51:50.797Z,99074.25
2022-12-12T09:54:21.210Z,99061.06
2022-12-12T09:56:55.587Z,99066.47
2022-12-12T09:59:31.258Z,99065.75
2022-12-12T10:02:21.519Z,99066.06
2022-12-12T10:05:15.739Z,99058.34
2022-12-12T10:08:17.805Z,99057.50
2022-12-12T10:10:48.086Z,99051.69
2022-12-12T10:13:19.345Z,99046.38
2022-12-12T10:15:49.357Z,99044.78
2022-12-12T10:18:26.965Z,99045.25
2022-12-12T10:20:56.796Z,99043.66
2022-12-12T10:23:46.499Z,99050.56
2022-12-12T10:26:27.486Z,99050.56
2022-12-12T10:29:00.213Z,99052.69
2022-12-12T10:31:26.880Z,99055.25
2022-12-12T10:34:14.341Z,99053.31
2022-12-12T10:37:03.679Z,99058.97
2022-12-12T10:39:30.199Z,99042.53
2022-12-12T10:42:21.385Z,99049.28
2022-12-12T10:45:12.513Z,99048.16
2022-12-12T10:47:39.239Z,99042.81
2022-12-12T10:50:13.414Z,99052.97
2022-12-12T10:52:40.342Z,99047.78
2022-12-12T10:55:20.106Z,99048.31
2022-12-12T10:57:46.690Z,99043.66
2022-12-12T11:00:25.408Z,99050.66
2022-12-12T11:02:56.771Z,99044.84
2022-12-12T11:05:34.560Z,99044.47
2022-12-12T11:08:21.021Z,99046.88
2022-12-12T11:10:59.439Z,99040.91
2022-12-12T11:13:26.175Z,99040.41
2022-12-12T11:15:57.664Z,99042.75
2022-12-12T11:18:25.463Z,99037.69
2022-12-12T11:21:14.084Z,99026.22
2022-12-12T11:23:51.939Z,99040.34
2022-12-12T11:26:20.478Z,99029.44
2022-12-12T11:28:55.602Z,99032.69
2022-12-12T11:31:25.955Z,99024.28
2022-12-12T11:33:57.523Z,99027.28
2022-12-12T11:36:31.974Z,99021.47
2022-12-12T11:39:01.724Z,99012.50
2022-12-12T11:41:28.799Z,99011.69
2022-12-12T11:44:00.196Z,99006.22
2022-12-12T11:46:32.125Z,99005.28
2022-12-12T11:48:59.992Z,99000.66
2022-12-12T11:51:43.362Z,99013.03
2022-12-12T11:54:14.632Z,99006.72
2022-12-12T11:56:44.155Z,99006.84
2022-12-12T11:59:22.752Z,99004.28
2022-12-12T12:02:00.287Z,98999.03
2022-12-12T12:04:51.276Z,98996.38
2022-12-12T12:07:19.564Z,98985.84
2022-12-12T12:09:57.044Z,98985.91
2022-12-12T12:13:02.303Z,98980.66
2022-12-12T12:15:35.940Z,98974.34
2022-12-12T12:18:28.276Z,98977.56
2022-12-12T12:21:16.826Z,98972.84
2022-12-12T12:23:52.241Z,98965.41
2022-12-12T12:27:06.881Z,98958.00
2022-12-12T12:29:42.835Z,98958.28
2022-12-12T12:32:26.323Z,98963.34
2022-12-12T12:35:14.351Z,98962.28
2022-12-12T12:38:13.410Z,98957.38
2022-12-12T12:40:49.966Z,98955.72
2022-12-12T12:43:28.911Z,98960.16
2022-12-12T12:46:12.761Z,98962.75
2022-12-12T12:48:43.705Z,98970.00
2022-12-12T12:51:35.230Z,98968.91
2022-12-12T12:54:18.240Z,98966.66
2022-12-12T12:56:58.781Z,98968.19
2022-12-12T12:59:32.552Z,98964.97
2022-12-12T13:02:12.111Z,98952.66
2022-12-12T13:04:57.371Z,98945.91
2022-12-12T13:07:29.061Z,98938.81
2022-12-12T13:10:08.638Z,98939.81
2022-12-12T13:12:40.116Z,98941.47
2022-12-12T13:15:22.418Z,98938.22
2022-12-12T13:18:09.289Z,98943.06
2022-12-12T13:20:42.340Z,98938.59
2022-12-12T13:23:47.195Z,98938.38
2022-12-12T13:26:38.605Z,98934.38
2022-12-12T13:29:41.517Z,98927.66
2022-12-12T13:32:17.131Z,98943.31
2022-12-12T13:34:50.804Z,98931.22
2022-12-12T13:37:20.626Z,98927.13
2022-12-12T13:40:01.020Z,98915.84
2022-12-12T13:42:51.910Z,98907.50
2022-12-12T13:45:43.634Z,98899.88
2022-12-12T13:48:46.990Z,98889.56
2022-12-12T13:51:32.054Z,98887.63
2022-12-12T13:54:12.821Z,98887.06
2022-12-12T13:56:52.716Z,98884.91
2022-12-12T13:59:22.246Z,98888.38
2022-12-12T14:02:00.098Z,98890.22
2022-12-12T14:04:30.951Z,98889.44
2022-12-12T14:06:59.128Z,98889.88
2022-12-12T14:09:47.279Z,98902.63
2022-12-12T14:12:20.396Z,98892.16
2022-12-12T14:14:57.406Z,98906.19
2022-12-12T14:17:27.975Z,98900.88
2022-12-12T14:19:58.601Z,98915.22
2022-12-12T14:22:40.347Z,98913.81
2022-12-12T14:25:33.879Z,98909.22
2022-12-12T14:28:18.876Z,98907.16
2022-12-12T14:30:56.009Z,98901.50
2022-12-12T14:33:47.457Z,98900.69
2022-12-12T14:36:25.356Z,98907.31
2022-12-12T14:39:01.980Z,98901.19
2022-12-12T14:41:34.620Z,98901.19
2022-12-12T14:44:35.202Z,98893.22
2022-12-12T14:46:52.070Z,98896.69
2022-12-12T14:49:19.298Z,98892.16
2022-12-12T14:51:50.745Z,98894.25
2022-12-12T14:54:22.728Z,98885.50
2022-12-12T14:57:01.429Z,98889.41
2022-12-12T14:59:32.856Z,98894.41
2022-12-12T15:02:05.946Z,98891.19
2022-12-12T15:04:38.903Z,98897.81
2022-12-12T15:07:21.487Z,98896.97
2022-12-12T15:09:49.308Z,98901.16
2022-12-12T15:12:22.067Z,98901.31
2022-12-12T15:14:48.590Z,98900.19
2022-12-12T15:17:26.794Z,98897.19
2022-12-12T15:19:57.651Z,98893.75
2022-12-12T15:22:30.787Z,98892.13
2022-12-12T15:25:00.465Z,98891.81
2022-12-12T15:27:46.146Z,98894.59
2022-12-12T15:30:16.762Z,98895.56
2022-12-12T15:32:46.981Z,98888.56
2022-12-12T15:35:20.913Z,98884.22
2022-12-12T15:37:58.941Z,98889.88
2022-12-12T15:40:35.845Z,98893.50
2022-12-12T15:43:06.596Z,98896.53
2022-12-12T15:45:40.453Z,98908.88
2022-12-12T15:48:13.606Z,98904.53
2022-12-12T15:50:40.132Z,98907.88
2022-12-12T15:53:19.164Z,98906.47
2022-12-12T15:56:01.941Z,98909.25
2022-12-12T15:58:35.120Z,98913.44
2022-12-12T16:01:21.418Z,98909.53
2022-12-12T16:04:10.210Z,98911.75
2022-12-12T16:06:36.951Z,98920.16
2022-12-12T16:09:17.875Z,98902.19
2022-12-12T16:11:47.419Z,98907.97
2022-12-12T16:14:40.836Z,98897.47
2022-12-12T16:17:18.272Z,98903.69
2022-12-12T16:20:10.718Z,98908.06
2022-12-12T16:22:47.787Z,98913.84
2022-12-12T16:25:32.521Z,98914.06
2022-12-12T16:28:08.468Z,98909.47
2022-12-12T16:30:36.809Z,98904.59
2022-12-12T16:33:23.089Z,98907.72
2022-12-12T16:35:49.855Z,98903.00
2022-12-12T16:38:17.809Z,98910.16
2022-12-12T16:40:48.354Z,98908.28
2022-12-12T16:43:17.643Z,98900.03
2022-12-12T16:45:44.426Z,98900.81
2022-12-12T16:48:18.489Z,98899.19
2022-12-12T16:50:46.011Z,98892.84
2022-12-12T16:53:12.765Z,98896.31
2022-12-12T16:55:45.648Z,98895.50
2022-12-12T16:58:12.657Z,98897.13
2022-12-12T17:00:40.044Z,98896.53
2022-12-12T17:03:07.077Z,98905.53
2022-12-12T17:05:35.261Z,98913.94
2022-12-12T17:08:03.121Z,98904.03
2022-12-12T17:10:31.616Z,98908.75
2022-12-12T17:12:58.188Z,98911.66
2022-12-12T17:15:29.955Z,98917.38
2022-12-12T17:17:56.988Z,98914.03
2022-12-12T17:20:24.680Z,98921.53
2022-12-12T17:22:52.155Z,98909.09
2022-12-12T17:25:19.755Z,98907.25
2022-12-12T17:27:46.331Z,98904.00
2022-12-12T17:30:14.026Z,98904.84
2022-12-12T17:32:41.164Z,98893.88
2022-12-12T17:35:08.896Z,98906.56
2022-12-12T17:37:35.926Z,98907.22
2022-12-12T17:40:04.712Z,98907.94
2022-12-12T17:42:32.056Z,98910.00
2022-12-12T17:44:59.310Z,98907.56
2022-12-12T17:47:26.478Z,98903.53
2022-12-12T17:49:53.080Z,98908.47
2022-12-12T17:52:19.663Z,98904.44
2022-12-12T17:55:54.014Z,98904.88
2022-12-12T17:57:34.488Z,98906.38
2022-12-12T18:00:01.064Z,98902.13
2022-12-12T18:02:27.670Z,98895.69
2022-12-12T18:04:54.296Z,98887.59
2022-12-12T18:07:20.913Z,98889.06
2022-12-12T18:09:47.461Z,98898.03
2022-12-12T18:12:14.264Z,98895.84
2022-12-12T18:14:40.871Z,98898.72
2022-12-12T18:17:07.592Z,98894.69
2022-12-12T18:19:34.270Z,98900.44
2022-12-12T18:22:02.054Z,98893.53
2022-12-12T18:24:29.953Z,98892.34
2022-12-12T18:26:59.105Z,98894.06
2022-12-12T18:29:26.642Z,98894.28
2022-12-12T18:31:53.712Z,98894.16
2022-12-12T18:34:20.762Z,98887.72
2022-12-12T18:36:47.515Z,98886.09
2022-12-12T18:39:14.253Z,98886.09
2022-12-12T18:41:40.939Z,98883.91
2022-12-12T18:44:11.289Z,98880.91
2022-12-12T18:46:42.773Z,98890.88
2022-12-12T18:49:15.671Z,98889.28
2022-12-12T18:51:42.947Z,98895.59
2022-12-12T18:54:15.438Z,98887.88
2022-12-12T18:56:43.626Z,98895.22
2022-12-12T18:59:10.253Z,98895.69
2022-12-12T19:01:37.399Z,98892.44
2022-12-12T19:04:11.773Z,98890.25
2022-12-12T19:06:41.660Z,98896.56
2022-12-12T19:09:14.717Z,98889.66
2022-12-12T19:11:41.565Z,98890.09
2022-12-12T19:14:09.652Z,98881.94
2022-12-12T19:16:36.701Z,98887.03
2022-12-12T19:19:09.349Z,98877.25
2022-12-12T19:21:36.651Z,98882.31
2022-12-12T19:24:04.808Z,98884.50
2022-12-12T19:26:31.387Z,98882.91
2022-12-12T19:29:04.629Z,98883.94
2022-12-12T19:31:36.094Z,98886.00
2022-12-12T19:34:05.001Z,98882.78
2022-12-12T19:36:31.931Z,98878.06
2022-12-12T19:39:00.774Z,98875.41
2022-12-12T19:41:28.404Z,98883.13
2022-12-12T19:43:57.298Z,98886.78
2022-12-12T19:46:26.992Z,98879.09
2022-12-12T19:49:01.285Z,98880.34
2022-12-12T19:51:32.516Z,98878.50
2022-12-12T19:54:00.248Z,98883.19
2022-12-12T19:56:29.637Z,98878.50
2022-12-12T19:58:57.465Z,98875.03
2022-12-12T20:01:28.423Z,98880.72
2022-12-12T20:04:02.994Z,98879.69
2022-12-12T20:06:29.932Z,98885.31
2022-12-12T20:09:00.043Z,98872.53
2022-12-12T20:11:27.306Z,98877.81
2022-12-12T20:13:56.814Z,98872.31
2022-12-12T20:16:25.787Z,98876.78
2022-12-12T20:18:53.130Z,98868.06
2022-12-12T20:21:51.681Z,98865.19
2022-12-12T20:24:10.571Z,98879.44
2022-12-12T20:26:39.414Z,98866.47
2022-12-12T20:29:06.737Z,98879.69
2022-12-12T20:31:36.028Z,98880.72
2022-12-12T20:34:02.760Z,98885.63
2022-12-12T20:36:32.661Z,98883.19
2022-12-12T20:39:01.548Z,98881.38
2022-12-12T20:41:31.275Z,98874.22
2022-12-12T20:43:59.625Z,98877.91
2022-12-12T20:46:31.963Z,98876.88
2022-12-12T20:48:59.976Z,98874.47
2022-12-12T20:51:54.792Z,98878.72
2022-12-12T20:54:19.948Z,98878.94
2022-12-12T20:56:46.786Z,98879.16
2022-12-12T20:59:14.560Z,98875.13
2022-12-12T21:01:41.552Z,98875.13
2022-12-12T21:04:09.471Z,98871.91
2022-12-12T21:06:39.515Z,98874.78
2022-12-12T21:09:09.638Z,98871.31
2022-12-12T21:11:37.620Z,98872.34
2022-12-12T21:14:04.387Z,98863.00
2022-12-12T21:16:33.747Z,98862.22
2022-12-12T21:19:02.696Z,98863.84
2022-12-12T21:21:30.194Z,98862.22
2022-12-12T21:23:57.036Z,98857.97
2022-12-12T21:26:29.153Z,98855.31
2022-12-12T21:28:56.872Z,98862.66
2022-12-12T21:31:26.404Z,98858.41
2022-12-12T21:33:53.068Z,98857.38
2022-12-12T21:36:21.980Z,98853.91
2022-12-12T21:38:49.603Z,98856.81
2022-12-12T21:41:18.567Z,98847.84
2022-12-12T21:43:45.490Z,98844.63
2022-12-12T21:46:17.690Z,98840.34
2022-12-12T21:48:44.290Z,98849.06
2022-12-12T21:51:16.462Z,98840.78
2022-12-12T21:53:43.098Z,98847.66
2022-12-12T21:56:17.632Z,98855.59
2022-12-12T21:58:47.305Z,98844.44
2022-12-12T22:01:19.856Z,98848.13
2022-12-12T22:03:48.540Z,98839.16
2022-12-12T22:06:27.179Z,98841.22
2022-12-12T22:08:58.778Z,98842.84
2022-12-12T22:11:41.084Z,98835.34
2022-12-12T22:14:12.227Z,98836.38
2022-12-12T22:16:39.298Z,98841.09
2022-12-12T22:19:10.916Z,98838.06
2022-12-12T22:21:37.979Z,98836.09
2022-12-12T22:24:05.371Z,98838.16
2022-12-12T22:26:41.135Z,98847.13
2022-12-12T22:29:11.244Z,98847.13
2022-12-12T22:31:39.419Z,98850.34
2022-12-12T22:34:10.536Z,98850.34
2022-12-12T22:36:38.722Z,98847.13
2022-12-12T22:39:07.830Z,98840.19
2022-12-12T22:41:34.640Z,98844.47
2022-12-12T22:44:03.937Z,98832.88
2022-12-12T22:46:31.234Z,98836.56
2022-12-12T22:49:00.497Z,98839.19
2022-12-12T22:51:30.696Z,98836.97
2022-12-12T22:53:59.646Z,98832.72
2022-12-12T22:56:28.334Z,98835.34
2022-12-12T22:58:55.247Z,98827.44
2022-12-12T23:01:23.140Z,98820.31
2022-12-12T23:03:49.915Z,98826.84
2022-12-12T23:06:20.001Z,98815.69
2022-12-12T23:08:55.745Z,98817.16
2022-12-12T23:11:24.254Z,98810.28
2022-12-12T23:13:53.517Z,98813.38
2022-12-12T23:16:24.056Z,98808.09
2022-12-12T23:18:51.334Z,98813.56
2022-12-12T23:21:21.772Z,98805.31
2022-12-12T23:23:49.288Z,98802.88
2022-12-12T23:26:22.448Z,98791.47
2022-12-12T23:28:49.752Z,98793.13
2022-12-12T23:31:22.016Z,98786.19
2022-12-12T23:33:53.735Z,98791.47
2022-12-12T23:36:20.995Z,98791.13
2022-12-12T23:38:47.736Z,98780.78
2022-12-12T23:41:16.079Z,98787.09
2022-12-12T23:43:43.214Z,98783.66
2022-12-12T23:46:28.185Z,98781.81
2022-12-12T23:49:05.944Z,98786.50
2022-12-12T23:51:37.938Z,98781.22
2022-12-12T23:54:07.204Z,98776.38
2022-12-12T23:56:33.858Z,98780.84
2022-12-12T23:59:01.055Z,98783.94
